EKRN Airport Information

Runway Information
Runway 11 Length 6568 ft width 148 ft
Elevation 46 ft Threshold 0 ft Heading 114
Runway 29 Length 6568 ft Width 148 ft
Elevation 51 ft Threshold 0 ft Heading 294
Airport Frequencies
Type APP/TWR Name Frequency 118.325 MHZ
Type MISC Name HANDLING Frequency 131.55 MHZ
Airport Navaids
Type TACAN Name Ronne Frequency 112000 KHZ
Type VOR-DME Name Ronne Frequency 112000 KHZ
Airport Weather Information & NOTAM
ADDS - METARS form results

(0119 UTC 05 December 2021)
Data provider http://aviationweather.gov/metar/data/
 
METAR text: EKRN 050050Z AUTO 10004KT 6000 -RA FEW005/// OVC013/// 04/03 Q1002
Conditions at: EKRN (RONNE , DK) observed 0050 UTC 05 December 2021
Temperature: 4.0°C (39°F)
Dewpoint: 3.0°C (37°F) [RH = 93%]
Pressure (altimeter): 29.59 inches Hg (1002.0 mb)
Winds: from the E (100 degrees) at 5 MPH (4 knots; 2.1 m/s)
Visibility: 4 miles ( 6 km)
Ceiling: 1300 feet AGL
Clouds: few clouds at 500 feet AGL
overcast cloud deck at 1300 feet AGL
Weather: -RA  (light rain)

METAR text: EKRN 050020Z AUTO 09005KT 5000 -RA OVC005/// 04/03 Q1002
Conditions at: EKRN (RONNE , DK) observed 0020 UTC 05 December 2021
Temperature: 4.0°C (39°F)
Dewpoint: 3.0°C (37°F) [RH = 93%]
Pressure (altimeter): 29.59 inches Hg (1002.0 mb)
Winds: from the E (90 degrees) at 6 MPH (5 knots; 2.6 m/s)
Visibility: 3 miles ( 5 km)
Ceiling: 500 feet AGL
Clouds: overcast cloud deck at 500 feet AGL
Weather: -RA  (light rain)